E/V Nautilus — J8B3605 — position and weather

sailwx.info

Track history (hours):
 
Tides and Currents Weather Stations Pressure Air Temp Water Temp Dewpoint Dewpoint Depression Visibility Wind Speed Wind Dir Waves Ship Positions

Oceanographic research ship E/V Nautilus (St Vincent and the Grenadines)

Ship's website: http://www.nautiluslive.org

Last reported at 2017-Jul-27 16:30 UTC. Time now 2017-Jul-27 16:55 UTC.
Position N 33°22' W 119°04'.

; draft 5 m.

Type: Other ship. MMSI: 376404000.

Date/timePositionNaut miles runAvg speedWind from/ knotsBaromVisibWave heightAir tempDewpointWater temp
2017-Jul-27 16:30N 33°22' W 119°04'0 0.1
2017-Jul-27 16:00N 33°22' W 119°04'0 0.3
2017-Jul-27 15:30N 33°22' W 119°04'0 0.1
2017-Jul-27 15:00N 33°22' W 119°04'0 0.1
2017-Jul-27 14:00N 33°22' W 119°04'0 0.0
2017-Jul-27 13:30N 33°22' W 119°04'0 0.0
2017-Jul-27 13:00N 33°22' W 119°04'0 0.1
2017-Jul-27 12:30N 33°22' W 119°04'0 0.0
2017-Jul-27 12:00N 33°22' W 119°04'0 0.2
2017-Jul-27 11:28N 33°22' W 119°04'0 0.0
2017-Jul-27 11:00N 33°22' W 119°04'0 0.1
2017-Jul-27 10:30N 33°22' W 119°04'0 0.1
2017-Jul-27 10:00N 33°22' W 119°03'0 0.1
2017-Jul-27 09:28N 33°22' W 119°03'0 0.2
2017-Jul-27 09:00N 33°22' W 119°03'0 0.2
2017-Jul-27 08:30N 33°22' W 119°03'0 0.3
2017-Jul-27 08:00N 33°22' W 119°03'0 0.1
2017-Jul-27 07:30N 33°22' W 119°03'0 0.2
2017-Jul-27 07:00N 33°22' W 119°03'0 0.2
2017-Jul-27 06:30N 33°21' W 119°03'0 0.2
2017-Jul-27 06:00N 33°21' W 119°03'0 0.1
2017-Jul-27 05:30N 33°21' W 119°03'0 0.2
2017-Jul-27 05:00N 33°21' W 119°03'0 0.2
2017-Jul-27 04:30N 33°21' W 119°03'0 0.0
2017-Jul-27 04:00N 33°21' W 119°03'0 0.0
2017-Jul-27 03:30N 33°21' W 119°03'0 0.0
2017-Jul-27 03:00N 33°21' W 119°03'0 0.9
2017-Jul-27 02:30N 33°22' W 119°03'510.3
2017-Jul-27 02:00N 33°25' W 119°07'610.9
2017-Jul-27 01:28N 33°29' W 119°13'610.7
2017-Jul-27 00:56N 33°33' W 119°18'410.5
2017-Jul-27 00:30N 33°36' W 119°22'510.2
2017-Jul-27 00:00N 33°39' W 119°26'5 9.9
2017-Jul-26 23:30N 33°42' W 119°31'5 9.9
2017-Jul-26 23:00N 33°46' W 119°35'5 9.9
2017-Jul-26 22:30N 33°49' W 119°39'5 9.9
2017-Jul-26 22:00N 33°52' W 119°44'5 9.7
2017-Jul-26 21:30N 33°55' W 119°49'5 9.9
2017-Jul-26 21:00N 33°59' W 119°53'5 9.9
2017-Jul-26 20:30N 34°03' W 119°56'3 6.6
2017-Jul-26 19:59N 34°05' W 119°53'1 1.9
2017-Jul-26 19:30N 34°04' W 119°52'0 0.8
2017-Jul-26 19:00N 34°04' W 119°51'1 2.0
2017-Jul-26 18:30N 34°05' W 119°50'4 7.5
2017-Jul-26 17:55N 34°09' W 119°48'4 9.8
2017-Jul-26 17:30N 34°13' W 119°46'5 9.8
2017-Jul-26 17:00N 34°17' W 119°44'5 9.9
2017-Jul-26 16:30N 34°22' W 119°42'2 4.1
2017-Jul-26 15:57N 34°24' W 119°41'0 0.0
2017-Jul-26 15:30N 34°24' W 119°41'0 0.1
2017-Jul-26 14:58N 34°24' W 119°41'0 0.1
2017-Jul-26 14:00N 34°24' W 119°41'1 2.3
2017-Jul-26 13:28N 34°23' W 119°41'2 3.3
2017-Jul-26 13:00N 34°21' W 119°40'2 3.3
2017-Jul-26 12:29N 34°20' W 119°39'2 3.3
2017-Jul-26 12:00N 34°18' W 119°38'2 3.2
2017-Jul-26 11:30N 34°17' W 119°37'2 3.3
2017-Jul-26 11:00N 34°15' W 119°37'4 7.8
2017-Jul-26 10:30N 34°12' W 119°35'510.3
2017-Jul-26 10:00N 34°07' W 119°32'510.0
2017-Jul-26 09:30N 34°03' W 119°29'510.3
2017-Jul-26 09:00N 33°57' W 119°28'610.6
2017-Jul-26 08:26N 33°51' W 119°27'410.2
2017-Jul-26 08:00N 33°47' W 119°26'5 9.9
2017-Jul-26 07:30N 33°42' W 119°25'5 9.8
2017-Jul-26 07:00N 33°38' W 119°24'510.0
2017-Jul-26 06:30N 33°33' W 119°23'4 8.8
2017-Jul-26 06:00N 33°30' W 119°19'510.1
2017-Jul-26 05:30N 33°28' W 119°13'5 9.6
2017-Jul-26 05:00N 33°25' W 119°09'3 5.8
2017-Jul-26 04:30N 33°23' W 119°06'1 2.5
2017-Jul-26 04:00N 33°22' W 119°05'1 2.6
2017-Jul-26 03:30N 33°21' W 119°04'1 1.6
2017-Jul-26 03:00N 33°21' W 119°03'0 0.3
2017-Jul-26 02:30N 33°21' W 119°03'0 0.1
2017-Jul-26 02:00N 33°21' W 119°03'0 0.1
2017-Jul-26 01:30N 33°21' W 119°03'0 0.6
2017-Jul-26 01:00N 33°21' W 119°03'0 0.5
2017-Jul-26 00:30N 33°21' W 119°03'0 0.2
2017-Jul-26 00:00N 33°21' W 119°03'0 0.1
2017-Jul-25 23:30N 33°21' W 119°03'0 0.1
2017-Jul-25 23:00N 33°21' W 119°03'0 0.2
2017-Jul-25 22:30N 33°21' W 119°02'0 0.3
2017-Jul-25 22:00N 33°22' W 119°03'0 0.3
2017-Jul-25 21:30N 33°22' W 119°03'0 0.1
2017-Jul-25 21:00N 33°22' W 119°02'0 0.0
2017-Jul-25 20:30N 33°22' W 119°02'0 0.0
2017-Jul-25 20:00N 33°22' W 119°02'0 0.2
2017-Jul-25 19:30N 33°22' W 119°02'0 0.5
2017-Jul-25 19:00N 33°22' W 119°02'0 0.5
2017-Jul-25 18:30N 33°22' W 119°02'0 0.3
2017-Jul-25 18:00N 33°22' W 119°02'0 0.1
2017-Jul-25 17:30N 33°22' W 119°02'0 0.3
2017-Jul-25 17:00N 33°22' W 119°01'0 0.3
2017-Jul-25 16:30N 33°22' W 119°01'0 0.1
2017-Jul-25 16:00N 33°22' W 119°01'0 0.1
2017-Jul-25 15:30N 33°22' W 119°01'0 0.2
2017-Jul-25 15:00N 33°22' W 119°01'0 0.2
2017-Jul-25 14:01N 33°22' W 119°02'0 0.2
2017-Jul-25 13:30N 33°22' W 119°01'0 0.3
2017-Jul-25 12:58N 33°22' W 119°01'0 0.2
2017-Jul-25 12:30N 33°22' W 119°01'0 0.3
2017-Jul-25 12:00N 33°22' W 119°02'0 0.2
2017-Jul-25 11:30N 33°22' W 119°01'0 0.0
2017-Jul-25 11:00N 33°22' W 119°01'0 0.0
2017-Jul-25 10:30N 33°22' W 119°01'1 2.4
2017-Jul-25 10:00N 33°22' W 118°60'510.0
2017-Jul-25 09:30N 33°21' W 118°54'510.5
2017-Jul-25 09:00N 33°21' W 118°48'510.3
2017-Jul-25 08:30N 33°20' W 118°42'510.2
2017-Jul-25 08:00N 33°20' W 118°36'510.1
2017-Jul-25 07:30N 33°19' W 118°30'2 3.3
2017-Jul-25 07:00N 33°19' W 118°32'0 0.3
2017-Jul-25 06:30N 33°19' W 118°32'4 8.3
2017-Jul-25 06:00N 33°18' W 118°27'4 7.5
2017-Jul-25 05:30N 33°17' W 118°23'4 8.5
2017-Jul-25 05:00N 33°18' W 118°27'4 8.4
2017-Jul-25 04:30N 33°20' W 118°32'1 2.0
2017-Jul-25 04:00N 33°19' W 118°31'4 8.3
2017-Jul-25 03:30N 33°18' W 118°26'3 6.7
2017-Jul-25 03:00N 33°17' W 118°23'4 8.8
2017-Jul-25 02:30N 33°18' W 118°28'4 8.5
2017-Jul-25 02:00N 33°20' W 118°32'1 2.0
2017-Jul-25 01:17N 33°21' W 118°31'0 0.0
2017-Jul-25 01:00N 33°21' W 118°31'0 0.2
2017-Jul-25 00:30N 33°21' W 118°31'0 0.1
2017-Jul-25 00:00N 33°21' W 118°31'0 0.1
2017-Jul-24 23:30N 33°21' W 118°31'0 0.2
2017-Jul-24 23:00N 33°21' W 118°31'0 0.2
2017-Jul-24 22:30N 33°21' W 118°31'0 0.0
2017-Jul-24 22:00N 33°21' W 118°31'0 0.2
2017-Jul-24 21:30N 33°21' W 118°31'0 0.4
2017-Jul-24 20:51N 33°21' W 118°31'0 0.3
2017-Jul-24 20:29N 33°21' W 118°31'0 0.1
2017-Jul-24 19:58N 33°21' W 118°31'0 0.6
2017-Jul-24 19:27N 33°21' W 118°31'1 1.5
2017-Jul-24 19:00N 33°21' W 118°32'510.4
2017-Jul-24 18:30N 33°22' W 118°38'510.3
2017-Jul-24 18:00N 33°23' W 118°44'510.4
2017-Jul-24 17:30N 33°24' W 118°50'510.0
2017-Jul-24 17:00N 33°26' W 118°56'5 9.7
2017-Jul-24 16:30N 33°27' W 119°01'4 8.0
2017-Jul-24 16:00N 33°30' W 119°05'0 0.1
2017-Jul-24 13:00N 33°30' W 119°05'0 0.3
2017-Jul-24 12:30N 33°30' W 119°05'0 0.2
2017-Jul-24 12:00N 33°30' W 119°05'0 0.3
2017-Jul-24 11:30N 33°29' W 119°05'0 0.3
2017-Jul-24 10:58N 33°29' W 119°05'0 0.4
2017-Jul-24 10:24N 33°30' W 119°05'0 0.1
2017-Jul-24 10:00N 33°30' W 119°05'0 0.4
2017-Jul-24 09:30N 33°30' W 119°05'0 0.4
2017-Jul-24 08:58N 33°30' W 119°05'0 0.5
2017-Jul-24 08:30N 33°30' W 119°05'0 0.2
2017-Jul-24 08:00N 33°30' W 119°04'0 0.3
2017-Jul-24 07:30N 33°30' W 119°05'0 0.1
2017-Jul-24 07:00N 33°30' W 119°05'0 0.7
2017-Jul-24 06:30N 33°30' W 119°04'1 2.9
2017-Jul-24 06:00N 33°29' W 119°06'5 9.3
2017-Jul-24 05:30N 33°34' W 119°07'510.2
2017-Jul-24 05:00N 33°38' W 119°11'510.4
2017-Jul-24 04:30N 33°42' W 119°14'510.5
2017-Jul-24 04:00N 33°47' W 119°17'510.6
2017-Jul-24 03:30N 33°51' W 119°21'510.4
2017-Jul-24 03:00N 33°56' W 119°24'5 9.9
2017-Jul-24 02:30N 33°60' W 119°27'5 9.3
2017-Jul-24 01:58N 34°05' W 119°30'5 9.3
2017-Jul-24 01:24N 34°09' W 119°32'410.2
2017-Jul-24 01:00N 34°13' W 119°34'510.3
2017-Jul-24 00:30N 34°18' W 119°37'510.2
2017-Jul-24 00:00N 34°22' W 119°40'2 3.7
2017-Jul-23 23:30N 34°24' W 119°41'0 0.0
2017-Jul-23 23:00N 34°24' W 119°41'0 0.0
2017-Jul-23 22:28N 34°24' W 119°41'0 0.0
2017-Jul-23 22:00N 34°24' W 119°41'0 0.0
2017-Jul-23 21:30N 34°24' W 119°41'0 0.0
2017-Jul-23 21:00N 34°24' W 119°41'0 0.0
2017-Jul-23 20:30N 34°24' W 119°41'0 0.1
2017-Jul-23 20:00N 34°24' W 119°41'4 7.5
2017-Jul-23 19:30N 34°20' W 119°39'510.0
2017-Jul-23 19:00N 34°16' W 119°36'510.0
2017-Jul-23 18:29N 34°12' W 119°33'610.0
2017-Jul-23 17:54N 34°06' W 119°30'411.2
2017-Jul-23 17:30N 34°02' W 119°30'511.0
2017-Jul-23 17:00N 33°57' W 119°30'510.0
2017-Jul-23 16:30N 33°51' W 119°30'510.4
2017-Jul-23 15:59N 33°46' W 119°30'4 8.1
2017-Jul-23 15:30N 33°42' W 119°30'0 0.3
2017-Jul-23 15:00N 33°42' W 119°30'0 0.0
2017-Jul-23 14:30N 33°42' W 119°30'0 0.0
2017-Jul-23 14:00N 33°42' W 119°30'0 0.0
2017-Jul-23 13:30N 33°42' W 119°30'0 0.1
2017-Jul-23 13:00N 33°42' W 119°30'1 1.4
2017-Jul-23 12:30N 33°42' W 119°29'510.1
2017-Jul-23 12:00N 33°41' W 119°23'510.4
2017-Jul-23 11:28N 33°39' W 119°16'510.3
2017-Jul-23 11:00N 33°38' W 119°11'510.0
2017-Jul-23 10:30N 33°37' W 119°05'5 9.6
2017-Jul-23 10:00N 33°36' W 118°59'5 9.4
2017-Jul-23 09:30N 33°34' W 118°54'5 9.8
2017-Jul-23 09:00N 33°31' W 118°49'510.2
2017-Jul-23 08:30N 33°29' W 118°44'510.1
2017-Jul-23 08:00N 33°27' W 118°38'510.0
2017-Jul-23 07:30N 33°24' W 118°33'3 3.7
2017-Jul-23 06:45N 33°23' W 118°30'0 0.0
2017-Jul-23 06:22N 33°23' W 118°30'0 0.2
2017-Jul-23 06:00N 33°23' W 118°30'0 0.3
2017-Jul-23 05:30N 33°23' W 118°30'0 0.1
2017-Jul-23 05:01N 33°23' W 118°30'0 0.1
2017-Jul-23 04:30N 33°23' W 118°30'0 0.3
2017-Jul-23 04:00N 33°23' W 118°30'0 0.9
2017-Jul-23 03:30N 33°23' W 118°31'1 1.2
2017-Jul-23 02:59N 33°22' W 118°31'1 1.0
2017-Jul-23 02:15N 33°21' W 118°31'0 1.0
2017-Jul-23 02:00N 33°21' W 118°31'0 1.0
2017-Jul-23 01:30N 33°21' W 118°31'0 0.1
2017-Jul-23 01:00N 33°21' W 118°31'0 0.1
2017-Jul-23 00:30N 33°21' W 118°31'0 0.1
2017-Jul-23 00:00N 33°21' W 118°32'0 0.1
2017-Jul-22 23:30N 33°21' W 118°32'0 0.1
2017-Jul-22 22:58N 33°21' W 118°32'0 0.1
2017-Jul-22 22:30N 33°21' W 118°32'0 0.1
2017-Jul-22 22:00N 33°21' W 118°32'0 0.1
2017-Jul-22 21:28N 33°20' W 118°32'3 5.4
2017-Jul-22 21:00N 33°21' W 118°35'510.1
2017-Jul-22 20:30N 33°23' W 118°40'5 9.7
2017-Jul-22 20:00N 33°25' W 118°45'5 9.9
2017-Jul-22 19:30N 33°26' W 118°51'5 9.9
2017-Jul-22 19:00N 33°27' W 118°57'4 7.1
2017-Jul-22 18:30N 33°27' W 119°01'0 0.6
2017-Jul-22 18:00N 33°27' W 119°02'0 0.1
2017-Jul-22 17:30N 33°27' W 119°02'0 0.1
2017-Jul-22 17:00N 33°27' W 119°02'0 0.1
2017-Jul-22 16:30N 33°27' W 119°02'0 0.1
2017-Jul-22 16:00N 33°27' W 119°02'0 0.5
2017-Jul-22 15:30N 33°27' W 119°02'0 0.6
2017-Jul-22 15:00N 33°27' W 119°02'0 0.3
2017-Jul-22 14:00N 33°26' W 119°02'0 0.1
2017-Jul-22 13:30N 33°26' W 119°02'0 1.0
2017-Jul-22 13:00N 33°26' W 119°02'0 0.9
2017-Jul-22 12:30N 33°26' W 119°03'0 0.3
2017-Jul-22 12:00N 33°25' W 119°03'0 0.3
2017-Jul-22 11:30N 33°25' W 119°03'0 0.4
2017-Jul-22 11:00N 33°25' W 119°03'0 0.5
2017-Jul-22 10:30N 33°25' W 119°03'0 0.5
2017-Jul-22 10:00N 33°25' W 119°03'0 0.4
2017-Jul-22 09:30N 33°24' W 119°02'0 0.0
2017-Jul-22 09:00N 33°24' W 119°02'0 0.0
2017-Jul-22 08:30N 33°24' W 119°02'0 0.1
2017-Jul-22 08:00N 33°25' W 119°02'5 9.6
2017-Jul-22 07:30N 33°28' W 119°06'5 9.8
2017-Jul-22 07:00N 33°32' W 119°09'510.0
2017-Jul-22 06:30N 33°34' W 119°15'5 9.7
2017-Jul-22 06:00N 33°36' W 119°20'5 9.8
2017-Jul-22 05:30N 33°38' W 119°26'5 9.4
2017-Jul-22 05:00N 33°40' W 119°31'4 8.4
2017-Jul-22 04:29N 33°43' W 119°35'4 7.9
2017-Jul-22 04:00N 33°44' W 119°39'4 7.7
2017-Jul-22 03:30N 33°45' W 119°44'1 2.3
2017-Jul-22 02:59N 33°45' W 119°45'0 0.8
2017-Jul-22 02:30N 33°45' W 119°45'0 0.6
2017-Jul-22 02:00N 33°45' W 119°45'0 0.2
2017-Jul-22 01:30N 33°45' W 119°45'0 0.2
2017-Jul-22 01:00N 33°45' W 119°45'0 0.0
2017-Jul-22 00:30N 33°45' W 119°45'0 0.0
2017-Jul-22 00:00N 33°45' W 119°45'0 0.0
2017-Jul-21 23:30N 33°45' W 119°45'0 0.0
2017-Jul-21 23:00N 33°45' W 119°45'0 0.0
2017-Jul-21 22:30N 33°45' W 119°45'0 0.0
2017-Jul-21 22:00N 33°45' W 119°45'0 0.1
2017-Jul-21 21:30N 33°45' W 119°44'0 0.2
2017-Jul-21 21:00N 33°45' W 119°44'0 0.2
2017-Jul-21 20:29N 33°45' W 119°44'0 0.6
2017-Jul-21 20:00N 33°45' W 119°44'0 0.6
2017-Jul-21 19:27N 33°45' W 119°43'0 0.1
2017-Jul-21 19:00N 33°45' W 119°43'0 0.0
2017-Jul-21 18:26N 33°45' W 119°43'0 0.0
2017-Jul-21 18:00N 33°45' W 119°43'0 0.0
2017-Jul-21 17:30N 33°45' W 119°43'0 0.0
2017-Jul-21 17:00N 33°45' W 119°43'0 0.1
2017-Jul-21 16:26N 33°45' W 119°43'0 0.5
2017-Jul-21 16:00N 33°45' W 119°44'0 0.5
2017-Jul-21 15:27N 33°45' W 119°43'3 5.9
2017-Jul-21 15:00N 33°47' W 119°41'4 7.9
2017-Jul-21 14:30N 33°44' W 119°45'3 6.8
2017-Jul-21 14:00N 33°44' W 119°41'4 7.8
2017-Jul-21 13:30N 33°45' W 119°36'3 6.4
2017-Jul-21 13:00N 33°46' W 119°40'4 7.7
2017-Jul-21 12:28N 33°46' W 119°45'1 3.1
2017-Jul-21 12:00N 33°45' W 119°43'0 0.5
2017-Jul-21 11:31N 33°45' W 119°44'0 0.0
2017-Jul-21 11:00N 33°45' W 119°44'0 0.4
2017-Jul-21 10:30N 33°45' W 119°44'0 0.3
2017-Jul-21 10:00N 33°45' W 119°44'0 0.3
2017-Jul-21 09:29N 33°45' W 119°43'0 0.0
2017-Jul-21 09:00N 33°45' W 119°43'0 0.0
2017-Jul-21 08:30N 33°45' W 119°43'0 0.5
2017-Jul-21 08:00N 33°45' W 119°43'0 0.4
2017-Jul-21 07:29N 33°45' W 119°43'0 0.3
2017-Jul-21 07:00N 33°45' W 119°43'0 0.1
2017-Jul-21 06:30N 33°45' W 119°43'0 0.1
2017-Jul-21 06:00N 33°45' W 119°43'0 0.2
2017-Jul-21 05:30N 33°45' W 119°43'0 0.4
2017-Jul-21 05:00N 33°45' W 119°42'0 0.5
2017-Jul-21 04:30N 33°45' W 119°42'0 0.4
2017-Jul-21 04:00N 33°45' W 119°42'0 0.1
2017-Jul-21 03:30N 33°45' W 119°42'0 0.0
2017-Jul-21 03:00N 33°45' W 119°42'0 0.4
2017-Jul-21 02:30N 33°45' W 119°42'0 0.5
2017-Jul-21 02:00N 33°45' W 119°41'0 0.4
2017-Jul-21 01:30N 33°45' W 119°41'0 0.2
2017-Jul-21 01:00N 33°45' W 119°41'0 0.0
2017-Jul-21 00:30N 33°45' W 119°41'0 0.0
2017-Jul-21 00:00N 33°45' W 119°41'0 0.0
2017-Jul-20 23:30N 33°45' W 119°41'0 0.0
2017-Jul-20 23:00N 33°45' W 119°41'0 0.0
2017-Jul-20 22:30N 33°45' W 119°41'0 0.5
2017-Jul-20 22:00N 33°45' W 119°41'4 8.0
2017-Jul-20 21:30N 33°45' W 119°45'4 7.8
2017-Jul-20 21:00N 33°45' W 119°50'3 6.8
2017-Jul-20 20:30N 33°45' W 119°54'510.1
2017-Jul-20 20:00N 33°50' W 119°55'510.4
2017-Jul-20 19:30N 33°55' W 119°56'611.3
2017-Jul-20 19:00N 34°01' W 119°57'5 9.1
2017-Jul-20 18:30N 34°06' W 119°57'5 9.1
2017-Jul-20 18:00N 34°09' W 119°54'5 9.7
2017-Jul-20 17:30N 34°13' W 119°50'5 9.8
2017-Jul-20 17:00N 34°17' W 119°47'5 9.9
2017-Jul-20 16:30N 34°21' W 119°43'3 6.2
2017-Jul-20 15:58N 34°24' W 119°41'0 0.0
2017-Jul-20 15:30N 34°24' W 119°41'0 0.0
2017-Jul-20 14:59N 34°24' W 119°41'1 1.3
2017-Jul-20 14:00N 34°23' W 119°41'510.0
2017-Jul-20 13:30N 34°18' W 119°38'510.1
2017-Jul-20 13:00N 34°14' W 119°35'510.0
2017-Jul-20 12:30N 34°09' W 119°33'510.1
2017-Jul-20 12:00N 34°04' W 119°31'510.2
2017-Jul-20 11:30N 33°60' W 119°28'510.0
2017-Jul-20 11:01N 33°55' W 119°26'510.2
2017-Jul-20 10:30N 33°50' W 119°24'510.6
2017-Jul-20 10:00N 33°45' W 119°22'510.0
2017-Jul-20 09:30N 33°42' W 119°18'5 9.8
2017-Jul-20 09:00N 33°38' W 119°14'5 9.5
2017-Jul-20 08:30N 33°33' W 119°12'4 7.0
2017-Jul-20 07:58N 33°30' W 119°10'1 1.7
2017-Jul-20 07:25N 33°29' W 119°09'1 1.6
2017-Jul-20 07:01N 33°29' W 119°09'0 0.0
2017-Jul-20 06:30N 33°29' W 119°09'0 0.1
2017-Jul-20 06:00N 33°29' W 119°09'0 0.1
2017-Jul-20 05:30N 33°29' W 119°09'0 0.3
2017-Jul-20 05:00N 33°29' W 119°09'0 0.1
2017-Jul-20 04:30N 33°29' W 119°09'0 0.0
2017-Jul-20 03:58N 33°29' W 119°09'0 0.2
2017-Jul-20 03:30N 33°29' W 119°09'0 0.1
2017-Jul-20 03:00N 33°29' W 119°09'0 0.0
2017-Jul-20 02:30N 33°29' W 119°09'0 0.0
2017-Jul-20 02:00N 33°29' W 119°09'0 0.0
2017-Jul-20 01:30N 33°29' W 119°09'0 0.1
2017-Jul-20 00:59N 33°29' W 119°09'0 0.3
2017-Jul-20 00:30N 33°29' W 119°09'0 0.2
2017-Jul-20 00:00N 33°29' W 119°09'0 0.1
2017-Jul-19 23:30N 33°29' W 119°09'0 0.2
2017-Jul-19 23:00N 33°29' W 119°09'0 0.3
2017-Jul-19 22:30N 33°29' W 119°10'0 0.3
2017-Jul-19 22:00N 33°29' W 119°10'0 0.3
2017-Jul-19 21:30N 33°29' W 119°10'0 0.3
2017-Jul-19 21:00N 33°30' W 119°09'0 0.2
2017-Jul-19 20:30N 33°30' W 119°09'0 0.4
2017-Jul-19 19:55N 33°29' W 119°09'0 0.9
2017-Jul-19 19:30N 33°29' W 119°09'0 0.6
2017-Jul-19 19:00N 33°29' W 119°09'0 0.5
2017-Jul-19 18:29N 33°29' W 119°08'0 0.2
2017-Jul-19 17:59N 33°29' W 119°08'0 0.2
2017-Jul-19 17:30N 33°29' W 119°08'0 0.1
2017-Jul-19 17:00N 33°29' W 119°08'0 0.2
2017-Jul-19 16:30N 33°29' W 119°08'0 0.1
2017-Jul-19 15:59N 33°29' W 119°08'0 0.2
2017-Jul-19 15:30N 33°29' W 119°08'0 0.0
2017-Jul-19 15:00N 33°29' W 119°08'0 0.9
2017-Jul-19 14:30N 33°29' W 119°08'4 7.9
2017-Jul-19 14:00N 33°26' W 119°04'4 8.1
2017-Jul-19 13:30N 33°28' W 118°59'3 5.0
2017-Jul-19 13:00N 33°30' W 119°00'3 6.0
2017-Jul-19 12:27N 33°27' W 119°01'3 6.5
2017-Jul-19 12:00N 33°25' W 119°04'3 6.6
2017-Jul-19 11:30N 33°22' W 119°02'1 1.0
2017-Jul-19 11:01N 33°22' W 119°02'2 3.1
2017-Jul-19 10:30N 33°23' W 119°04'3 5.5
2017-Jul-19 10:00N 33°22' W 119°01'4 8.4
2017-Jul-19 09:30N 33°23' W 119°05'4 7.8
2017-Jul-19 09:00N 33°22' W 119°01'1 2.9
2017-Jul-19 08:30N 33°21' W 118°60'4 8.7
2017-Jul-19 08:00N 33°23' W 119°04'1 2.8
2017-Jul-19 07:30N 33°22' W 119°03'2 3.3
2017-Jul-19 07:00N 33°21' W 119°01'5 9.9
2017-Jul-19 06:31N 33°23' W 119°06'510.1
2017-Jul-19 05:58N 33°29' W 119°05'1 2.5
2017-Jul-19 05:30N 33°30' W 119°04'0 0.0
2017-Jul-19 05:00N 33°30' W 119°04'0 0.0
2017-Jul-19 04:30N 33°30' W 119°04'0 0.0
2017-Jul-19 04:00N 33°30' W 119°04'0 0.0
2017-Jul-19 03:30N 33°30' W 119°04'0 0.0
2017-Jul-19 03:00N 33°30' W 119°04'0 0.0
2017-Jul-19 02:30N 33°30' W 119°04'0 0.5
2017-Jul-19 02:00N 33°29' W 119°04'0 0.2
2017-Jul-19 01:30N 33°29' W 119°05'3 6.9
2017-Jul-19 01:00N 33°26' W 119°03'5 9.4
2017-Jul-19 00:30N 33°22' W 119°01'2 4.4
2017-Jul-19 00:00N 33°22' W 119°03'1 2.6
2017-Jul-18 23:30N 33°22' W 119°05'4 7.7
2017-Jul-18 23:00N 33°21' W 119°00'3 6.7
2017-Jul-18 22:30N 33°22' W 119°04'0 0.7
2017-Jul-18 22:00N 33°22' W 119°04'3 5.4
2017-Jul-18 21:30N 33°21' W 119°01'4 8.3
2017-Jul-18 21:00N 33°22' W 119°06'4 6.8
2017-Jul-18 20:27N 33°21' W 119°01'3 7.2
2017-Jul-18 20:00N 33°24' W 119°02'5 9.3
2017-Jul-18 19:29N 33°28' W 119°04'1 2.5
2017-Jul-18 18:58N 33°30' W 119°04'0 0.0
2017-Jul-18 18:30N 33°30' W 119°04'0 0.1
2017-Jul-18 18:00N 33°30' W 119°04'0 0.0
2017-Jul-18 17:30N 33°30' W 119°04'0 0.0
2017-Jul-18 17:00N 33°30' W 119°04'0 0.0
2017-Jul-18 16:29N 33°30' W 119°04'1 1.5
2017-Jul-18 16:00N 33°30' W 119°05'5 9.4
2017-Jul-18 15:30N 33°33' W 119°10'5 9.9
2017-Jul-18 15:00N 33°36' W 119°14'9 9.4
2017-Jul-18 14:00N 33°41' W 119°23'5 9.2
2017-Jul-18 13:30N 33°44' W 119°28'5 9.1
2017-Jul-18 13:00N 33°46' W 119°33'5 9.3
2017-Jul-18 12:30N 33°49' W 119°37'5 9.4
2017-Jul-18 12:00N 33°52' W 119°42'5 9.8
2017-Jul-18 11:30N 33°54' W 119°47'2 4.5
2017-Jul-18 11:00N 33°56' W 119°49'0 0.3
2017-Jul-18 10:30N 33°56' W 119°49'0 0.0
2017-Jul-18 10:00N 33°56' W 119°49'0 0.0
2017-Jul-18 09:29N 33°56' W 119°49'0 0.0
2017-Jul-18 09:00N 33°56' W 119°49'0 0.0
2017-Jul-18 08:20N 33°56' W 119°49'0 0.0
2017-Jul-18 07:54N 33°56' W 119°49'0 0.0
2017-Jul-18 07:30N 33°56' W 119°49'0 0.0
2017-Jul-18 07:00N 33°56' W 119°49'0 0.1
2017-Jul-18 06:30N 33°56' W 119°49'0 0.0
2017-Jul-18 06:00N 33°56' W 119°49'0 0.1
2017-Jul-18 05:29N 33°56' W 119°49'0 0.0
2017-Jul-18 05:00N 33°56' W 119°49'1 2.0
2017-Jul-18 04:30N 33°56' W 119°47'510.0
2017-Jul-18 04:00N 33°57' W 119°41'510.2
2017-Jul-18 03:29N 33°58' W 119°35'5 9.9
2017-Jul-18 03:00N 33°59' W 119°29'5 9.8
2017-Jul-18 02:30N 33°60' W 119°24'5 9.4
2017-Jul-18 02:00N 34°02' W 119°19'5 9.9
2017-Jul-18 01:30N 34°06' W 119°15'2 3.8
2017-Jul-18 00:58N 34°07' W 119°13'0 0.0
2017-Jul-18 00:30N 34°07' W 119°13'0 0.0
2017-Jul-17 23:56N 34°07' W 119°13'0 0.2
2017-Jul-17 23:29N 34°07' W 119°13'0 0.2
2017-Jul-17 22:59N 34°07' W 119°13'1 1.2
2017-Jul-17 22:30N 34°08' W 119°13'0 0.1
2017-Jul-17 21:59N 34°08' W 119°13'0 0.1
2017-Jul-17 21:30N 34°08' W 119°13'0 0.8
2017-Jul-17 21:00N 34°08' W 119°13'2 3.4
2017-Jul-17 20:30N 34°06' W 119°15'1 1.6
2017-Jul-17 19:59N 34°06' W 119°14'2 5.1
2017-Jul-17 19:30N 34°08' W 119°13'2 3.5
2017-Jul-17 19:00N 34°06' W 119°14'4 7.6
2017-Jul-17 18:29N 34°09' W 119°17'510.2
2017-Jul-17 18:00N 34°12' W 119°22'510.2
2017-Jul-17 17:28N 34°15' W 119°27'510.5
2017-Jul-17 16:57N 34°18' W 119°32'510.2
2017-Jul-17 16:30N 34°21' W 119°37'  
Track history (hours):
 
Tides and Currents Weather Stations Pressure Air Temp Water Temp Dewpoint Dewpoint Depression Visibility Wind Speed Wind Dir Waves Ship Positions

Oceanographic research ship E/V Nautilus (St Vincent and the Grenadines)

Ship's website: http://www.nautiluslive.org

Last reported at 2017-Jul-27 16:30 UTC. Time now 2017-Jul-27 16:55 UTC.
Position N 33°22' W 119°04'.

; draft 5 m.

Type: Other ship. MMSI: 376404000.

Date/timePositionNaut miles runAvg speedWind from/ knotsBaromVisibWave heightAir tempDewpointWater temp
2017-Jul-27 16:30N 33°22' W 119°04'0 0.1
2017-Jul-27 16:00N 33°22' W 119°04'0 0.3
2017-Jul-27 15:30N 33°22' W 119°04'0 0.1
2017-Jul-27 15:00N 33°22' W 119°04'0 0.1
2017-Jul-27 14:00N 33°22' W 119°04'0 0.0
2017-Jul-27 13:30N 33°22' W 119°04'0 0.0
2017-Jul-27 13:00N 33°22' W 119°04'0 0.1
2017-Jul-27 12:30N 33°22' W 119°04'0 0.0
2017-Jul-27 12:00N 33°22' W 119°04'0 0.2
2017-Jul-27 11:28N 33°22' W 119°04'0 0.0
2017-Jul-27 11:00N 33°22' W 119°04'0 0.1
2017-Jul-27 10:30N 33°22' W 119°04'0 0.1
2017-Jul-27 10:00N 33°22' W 119°03'0 0.1
2017-Jul-27 09:28N 33°22' W 119°03'0 0.2
2017-Jul-27 09:00N 33°22' W 119°03'0 0.2
2017-Jul-27 08:30N 33°22' W 119°03'0 0.3
2017-Jul-27 08:00N 33°22' W 119°03'0 0.1
2017-Jul-27 07:30N 33°22' W 119°03'0 0.2
2017-Jul-27 07:00N 33°22' W 119°03'0 0.2
2017-Jul-27 06:30N 33°21' W 119°03'0 0.2
2017-Jul-27 06:00N 33°21' W 119°03'0 0.1
2017-Jul-27 05:30N 33°21' W 119°03'0 0.2
2017-Jul-27 05:00N 33°21' W 119°03'0 0.2
2017-Jul-27 04:30N 33°21' W 119°03'0 0.0
2017-Jul-27 04:00N 33°21' W 119°03'0 0.0
2017-Jul-27 03:30N 33°21' W 119°03'0 0.0
2017-Jul-27 03:00N 33°21' W 119°03'0 0.9
2017-Jul-27 02:30N 33°22' W 119°03'510.3
2017-Jul-27 02:00N 33°25' W 119°07'610.9
2017-Jul-27 01:28N 33°29' W 119°13'610.7
2017-Jul-27 00:56N 33°33' W 119°18'410.5
2017-Jul-27 00:30N 33°36' W 119°22'510.2
2017-Jul-27 00:00N 33°39' W 119°26'5 9.9
2017-Jul-26 23:30N 33°42' W 119°31'5 9.9
2017-Jul-26 23:00N 33°46' W 119°35'5 9.9
2017-Jul-26 22:30N 33°49' W 119°39'5 9.9
2017-Jul-26 22:00N 33°52' W 119°44'5 9.7
2017-Jul-26 21:30N 33°55' W 119°49'5 9.9
2017-Jul-26 21:00N 33°59' W 119°53'5 9.9
2017-Jul-26 20:30N 34°03' W 119°56'3 6.6
2017-Jul-26 19:59N 34°05' W 119°53'1 1.9
2017-Jul-26 19:30N 34°04' W 119°52'0 0.8
2017-Jul-26 19:00N 34°04' W 119°51'1 2.0
2017-Jul-26 18:30N 34°05' W 119°50'4 7.5
2017-Jul-26 17:55N 34°09' W 119°48'4 9.8
2017-Jul-26 17:30N 34°13' W 119°46'5 9.8
2017-Jul-26 17:00N 34°17' W 119°44'5 9.9
2017-Jul-26 16:30N 34°22' W 119°42'2 4.1
2017-Jul-26 15:57N 34°24' W 119°41'0 0.0
2017-Jul-26 15:30N 34°24' W 119°41'0 0.1
2017-Jul-26 14:58N 34°24' W 119°41'0 0.1
2017-Jul-26 14:00N 34°24' W 119°41'1 2.3
2017-Jul-26 13:28N 34°23' W 119°41'2 3.3
2017-Jul-26 13:00N 34°21' W 119°40'2 3.3
2017-Jul-26 12:29N 34°20' W 119°39'2 3.3
2017-Jul-26 12:00N 34°18' W 119°38'2 3.2
2017-Jul-26 11:30N 34°17' W 119°37'2 3.3
2017-Jul-26 11:00N 34°15' W 119°37'4 7.8
2017-Jul-26 10:30N 34°12' W 119°35'510.3
2017-Jul-26 10:00N 34°07' W 119°32'510.0
2017-Jul-26 09:30N 34°03' W 119°29'510.3
2017-Jul-26 09:00N 33°57' W 119°28'610.6
2017-Jul-26 08:26N 33°51' W 119°27'410.2
2017-Jul-26 08:00N 33°47' W 119°26'5 9.9
2017-Jul-26 07:30N 33°42' W 119°25'5 9.8
2017-Jul-26 07:00N 33°38' W 119°24'510.0
2017-Jul-26 06:30N 33°33' W 119°23'4 8.8
2017-Jul-26 06:00N 33°30' W 119°19'510.1
2017-Jul-26 05:30N 33°28' W 119°13'5 9.6
2017-Jul-26 05:00N 33°25' W 119°09'3 5.8
2017-Jul-26 04:30N 33°23' W 119°06'1 2.5
2017-Jul-26 04:00N 33°22' W 119°05'1 2.6
2017-Jul-26 03:30N 33°21' W 119°04'1 1.6
2017-Jul-26 03:00N 33°21' W 119°03'0 0.3
2017-Jul-26 02:30N 33°21' W 119°03'0 0.1
2017-Jul-26 02:00N 33°21' W 119°03'0 0.1
2017-Jul-26 01:30N 33°21' W 119°03'0 0.6
2017-Jul-26 01:00N 33°21' W 119°03'0 0.5
2017-Jul-26 00:30N 33°21' W 119°03'0 0.2
2017-Jul-26 00:00N 33°21' W 119°03'0 0.1
2017-Jul-25 23:30N 33°21' W 119°03'0 0.1
2017-Jul-25 23:00N 33°21' W 119°03'0 0.2
2017-Jul-25 22:30N 33°21' W 119°02'0 0.3
2017-Jul-25 22:00N 33°22' W 119°03'0 0.3
2017-Jul-25 21:30N 33°22' W 119°03'0 0.1
2017-Jul-25 21:00N 33°22' W 119°02'0 0.0
2017-Jul-25 20:30N 33°22' W 119°02'0 0.0
2017-Jul-25 20:00N 33°22' W 119°02'0 0.2
2017-Jul-25 19:30N 33°22' W 119°02'0 0.5
2017-Jul-25 19:00N 33°22' W 119°02'0 0.5
2017-Jul-25 18:30N 33°22' W 119°02'0 0.3
2017-Jul-25 18:00N 33°22' W 119°02'0 0.1
2017-Jul-25 17:30N 33°22' W 119°02'0 0.3
2017-Jul-25 17:00N 33°22' W 119°01'0 0.3
2017-Jul-25 16:30N 33°22' W 119°01'0 0.1
2017-Jul-25 16:00N 33°22' W 119°01'0 0.1
2017-Jul-25 15:30N 33°22' W 119°01'0 0.2
2017-Jul-25 15:00N 33°22' W 119°01'0 0.2
2017-Jul-25 14:01N 33°22' W 119°02'0 0.2
2017-Jul-25 13:30N 33°22' W 119°01'0 0.3
2017-Jul-25 12:58N 33°22' W 119°01'0 0.2
2017-Jul-25 12:30N 33°22' W 119°01'0 0.3
2017-Jul-25 12:00N 33°22' W 119°02'0 0.2
2017-Jul-25 11:30N 33°22' W 119°01'0 0.0
2017-Jul-25 11:00N 33°22' W 119°01'0 0.0
2017-Jul-25 10:30N 33°22' W 119°01'1 2.4
2017-Jul-25 10:00N 33°22' W 118°60'510.0
2017-Jul-25 09:30N 33°21' W 118°54'510.5
2017-Jul-25 09:00N 33°21' W 118°48'510.3
2017-Jul-25 08:30N 33°20' W 118°42'510.2
2017-Jul-25 08:00N 33°20' W 118°36'510.1
2017-Jul-25 07:30N 33°19' W 118°30'2 3.3
2017-Jul-25 07:00N 33°19' W 118°32'0 0.3
2017-Jul-25 06:30N 33°19' W 118°32'4 8.3
2017-Jul-25 06:00N 33°18' W 118°27'4 7.5
2017-Jul-25 05:30N 33°17' W 118°23'4 8.5
2017-Jul-25 05:00N 33°18' W 118°27'4 8.4
2017-Jul-25 04:30N 33°20' W 118°32'1 2.0
2017-Jul-25 04:00N 33°19' W 118°31'4 8.3
2017-Jul-25 03:30N 33°18' W 118°26'3 6.7
2017-Jul-25 03:00N 33°17' W 118°23'4 8.8
2017-Jul-25 02:30N 33°18' W 118°28'4 8.5
2017-Jul-25 02:00N 33°20' W 118°32'1 2.0
2017-Jul-25 01:17N 33°21' W 118°31'0 0.0
2017-Jul-25 01:00N 33°21' W 118°31'0 0.2
2017-Jul-25 00:30N 33°21' W 118°31'0 0.1
2017-Jul-25 00:00N 33°21' W 118°31'0 0.1
2017-Jul-24 23:30N 33°21' W 118°31'0 0.2
2017-Jul-24 23:00N 33°21' W 118°31'0 0.2
2017-Jul-24 22:30N 33°21' W 118°31'0 0.0
2017-Jul-24 22:00N 33°21' W 118°31'0 0.2
2017-Jul-24 21:30N 33°21' W 118°31'0 0.4
2017-Jul-24 20:51N 33°21' W 118°31'0 0.3
2017-Jul-24 20:29N 33°21' W 118°31'0 0.1
2017-Jul-24 19:58N 33°21' W 118°31'0 0.6
2017-Jul-24 19:27N 33°21' W 118°31'1 1.5
2017-Jul-24 19:00N 33°21' W 118°32'510.4
2017-Jul-24 18:30N 33°22' W 118°38'510.3
2017-Jul-24 18:00N 33°23' W 118°44'510.4
2017-Jul-24 17:30N 33°24' W 118°50'510.0
2017-Jul-24 17:00N 33°26' W 118°56'5 9.7
2017-Jul-24 16:30N 33°27' W 119°01'4 8.0
2017-Jul-24 16:00N 33°30' W 119°05'0 0.1
2017-Jul-24 13:00N 33°30' W 119°05'0 0.3
2017-Jul-24 12:30N 33°30' W 119°05'0 0.2
2017-Jul-24 12:00N 33°30' W 119°05'0 0.3
2017-Jul-24 11:30N 33°29' W 119°05'0 0.3
2017-Jul-24 10:58N 33°29' W 119°05'0 0.4
2017-Jul-24 10:24N 33°30' W 119°05'0 0.1
2017-Jul-24 10:00N 33°30' W 119°05'0 0.4
2017-Jul-24 09:30N 33°30' W 119°05'0 0.4
2017-Jul-24 08:58N 33°30' W 119°05'0 0.5
2017-Jul-24 08:30N 33°30' W 119°05'0 0.2
2017-Jul-24 08:00N 33°30' W 119°04'0 0.3
2017-Jul-24 07:30N 33°30' W 119°05'0 0.1
2017-Jul-24 07:00N 33°30' W 119°05'0 0.7
2017-Jul-24 06:30N 33°30' W 119°04'1 2.9
2017-Jul-24 06:00N 33°29' W 119°06'5 9.3
2017-Jul-24 05:30N 33°34' W 119°07'510.2
2017-Jul-24 05:00N 33°38' W 119°11'510.4
2017-Jul-24 04:30N 33°42' W 119°14'510.5
2017-Jul-24 04:00N 33°47' W 119°17'510.6
2017-Jul-24 03:30N 33°51' W 119°21'510.4
2017-Jul-24 03:00N 33°56' W 119°24'5 9.9
2017-Jul-24 02:30N 33°60' W 119°27'5 9.3
2017-Jul-24 01:58N 34°05' W 119°30'5 9.3
2017-Jul-24 01:24N 34°09' W 119°32'410.2
2017-Jul-24 01:00N 34°13' W 119°34'510.3
2017-Jul-24 00:30N 34°18' W 119°37'510.2
2017-Jul-24 00:00N 34°22' W 119°40'2 3.7
2017-Jul-23 23:30N 34°24' W 119°41'0 0.0
2017-Jul-23 23:00N 34°24' W 119°41'0 0.0
2017-Jul-23 22:28N 34°24' W 119°41'0 0.0
2017-Jul-23 22:00N 34°24' W 119°41'0 0.0
2017-Jul-23 21:30N 34°24' W 119°41'0 0.0
2017-Jul-23 21:00N 34°24' W 119°41'0 0.0
2017-Jul-23 20:30N 34°24' W 119°41'0 0.1
2017-Jul-23 20:00N 34°24' W 119°41'4 7.5
2017-Jul-23 19:30N 34°20' W 119°39'510.0
2017-Jul-23 19:00N 34°16' W 119°36'510.0
2017-Jul-23 18:29N 34°12' W 119°33'610.0
2017-Jul-23 17:54N 34°06' W 119°30'411.2
2017-Jul-23 17:30N 34°02' W 119°30'511.0
2017-Jul-23 17:00N 33°57' W 119°30'510.0
2017-Jul-23 16:30N 33°51' W 119°30'510.4
2017-Jul-23 15:59N 33°46' W 119°30'4 8.1
2017-Jul-23 15:30N 33°42' W 119°30'0 0.3
2017-Jul-23 15:00N 33°42' W 119°30'0 0.0
2017-Jul-23 14:30N 33°42' W 119°30'0 0.0
2017-Jul-23 14:00N 33°42' W 119°30'0 0.0
2017-Jul-23 13:30N 33°42' W 119°30'0 0.1
2017-Jul-23 13:00N 33°42' W 119°30'1 1.4
2017-Jul-23 12:30N 33°42' W 119°29'510.1
2017-Jul-23 12:00N 33°41' W 119°23'510.4
2017-Jul-23 11:28N 33°39' W 119°16'510.3
2017-Jul-23 11:00N 33°38' W 119°11'510.0
2017-Jul-23 10:30N 33°37' W 119°05'5 9.6
2017-Jul-23 10:00N 33°36' W 118°59'5 9.4
2017-Jul-23 09:30N 33°34' W 118°54'5 9.8
2017-Jul-23 09:00N 33°31' W 118°49'510.2
2017-Jul-23 08:30N 33°29' W 118°44'510.1
2017-Jul-23 08:00N 33°27' W 118°38'510.0
2017-Jul-23 07:30N 33°24' W 118°33'3 3.7
2017-Jul-23 06:45N 33°23' W 118°30'0 0.0
2017-Jul-23 06:22N 33°23' W 118°30'0 0.2
2017-Jul-23 06:00N 33°23' W 118°30'0 0.3
2017-Jul-23 05:30N 33°23' W 118°30'0 0.1
2017-Jul-23 05:01N 33°23' W 118°30'0 0.1
2017-Jul-23 04:30N 33°23' W 118°30'0 0.3
2017-Jul-23 04:00N 33°23' W 118°30'0 0.9
2017-Jul-23 03:30N 33°23' W 118°31'1 1.2
2017-Jul-23 02:59N 33°22' W 118°31'1 1.0
2017-Jul-23 02:15N 33°21' W 118°31'0 1.0
2017-Jul-23 02:00N 33°21' W 118°31'0 1.0
2017-Jul-23 01:30N 33°21' W 118°31'0 0.1
2017-Jul-23 01:00N 33°21' W 118°31'0 0.1
2017-Jul-23 00:30N 33°21' W 118°31'0 0.1
2017-Jul-23 00:00N 33°21' W 118°32'0 0.1
2017-Jul-22 23:30N 33°21' W 118°32'0 0.1
2017-Jul-22 22:58N 33°21' W 118°32'0 0.1
2017-Jul-22 22:30N 33°21' W 118°32'0 0.1
2017-Jul-22 22:00N 33°21' W 118°32'0 0.1
2017-Jul-22 21:28N 33°20' W 118°32'3 5.4
2017-Jul-22 21:00N 33°21' W 118°35'510.1
2017-Jul-22 20:30N 33°23' W 118°40'5 9.7
2017-Jul-22 20:00N 33°25' W 118°45'5 9.9
2017-Jul-22 19:30N 33°26' W 118°51'5 9.9
2017-Jul-22 19:00N 33°27' W 118°57'4 7.1
2017-Jul-22 18:30N 33°27' W 119°01'0 0.6
2017-Jul-22 18:00N 33°27' W 119°02'0 0.1
2017-Jul-22 17:30N 33°27' W 119°02'0 0.1
2017-Jul-22 17:00N 33°27' W 119°02'0 0.1
2017-Jul-22 16:30N 33°27' W 119°02'0 0.1
2017-Jul-22 16:00N 33°27' W 119°02'0 0.5
2017-Jul-22 15:30N 33°27' W 119°02'0 0.6
2017-Jul-22 15:00N 33°27' W 119°02'0 0.3
2017-Jul-22 14:00N 33°26' W 119°02'0 0.1
2017-Jul-22 13:30N 33°26' W 119°02'0 1.0
2017-Jul-22 13:00N 33°26' W 119°02'0 0.9
2017-Jul-22 12:30N 33°26' W 119°03'0 0.3
2017-Jul-22 12:00N 33°25' W 119°03'0 0.3
2017-Jul-22 11:30N 33°25' W 119°03'0 0.4
2017-Jul-22 11:00N 33°25' W 119°03'0 0.5
2017-Jul-22 10:30N 33°25' W 119°03'0 0.5
2017-Jul-22 10:00N 33°25' W 119°03'0 0.4
2017-Jul-22 09:30N 33°24' W 119°02'0 0.0
2017-Jul-22 09:00N 33°24' W 119°02'0 0.0
2017-Jul-22 08:30N 33°24' W 119°02'0 0.1
2017-Jul-22 08:00N 33°25' W 119°02'5 9.6
2017-Jul-22 07:30N 33°28' W 119°06'5 9.8
2017-Jul-22 07:00N 33°32' W 119°09'510.0
2017-Jul-22 06:30N 33°34' W 119°15'5 9.7
2017-Jul-22 06:00N 33°36' W 119°20'5 9.8
2017-Jul-22 05:30N 33°38' W 119°26'5 9.4
2017-Jul-22 05:00N 33°40' W 119°31'4 8.4
2017-Jul-22 04:29N 33°43' W 119°35'4 7.9
2017-Jul-22 04:00N 33°44' W 119°39'4 7.7
2017-Jul-22 03:30N 33°45' W 119°44'1 2.3
2017-Jul-22 02:59N 33°45' W 119°45'0 0.8
2017-Jul-22 02:30N 33°45' W 119°45'0 0.6
2017-Jul-22 02:00N 33°45' W 119°45'0 0.2
2017-Jul-22 01:30N 33°45' W 119°45'0 0.2
2017-Jul-22 01:00N 33°45' W 119°45'0 0.0
2017-Jul-22 00:30N 33°45' W 119°45'0 0.0
2017-Jul-22 00:00N 33°45' W 119°45'0 0.0
2017-Jul-21 23:30N 33°45' W 119°45'0 0.0
2017-Jul-21 23:00N 33°45' W 119°45'0 0.0
2017-Jul-21 22:30N 33°45' W 119°45'0 0.0
2017-Jul-21 22:00N 33°45' W 119°45'0 0.1
2017-Jul-21 21:30N 33°45' W 119°44'0 0.2
2017-Jul-21 21:00N 33°45' W 119°44'0 0.2
2017-Jul-21 20:29N 33°45' W 119°44'0 0.6
2017-Jul-21 20:00N 33°45' W 119°44'0 0.6
2017-Jul-21 19:27N 33°45' W 119°43'0 0.1
2017-Jul-21 19:00N 33°45' W 119°43'0 0.0
2017-Jul-21 18:26N 33°45' W 119°43'0 0.0
2017-Jul-21 18:00N 33°45' W 119°43'0 0.0
2017-Jul-21 17:30N 33°45' W 119°43'0 0.0
2017-Jul-21 17:00N 33°45' W 119°43'0 0.1
2017-Jul-21 16:26N 33°45' W 119°43'0 0.5
2017-Jul-21 16:00N 33°45' W 119°44'0 0.5
2017-Jul-21 15:27N 33°45' W 119°43'3 5.9
2017-Jul-21 15:00N 33°47' W 119°41'4 7.9
2017-Jul-21 14:30N 33°44' W 119°45'3 6.8
2017-Jul-21 14:00N 33°44' W 119°41'4 7.8
2017-Jul-21 13:30N 33°45' W 119°36'3 6.4
2017-Jul-21 13:00N 33°46' W 119°40'4 7.7
2017-Jul-21 12:28N 33°46' W 119°45'1 3.1
2017-Jul-21 12:00N 33°45' W 119°43'0 0.5
2017-Jul-21 11:31N 33°45' W 119°44'0 0.0
2017-Jul-21 11:00N 33°45' W 119°44'0 0.4
2017-Jul-21 10:30N 33°45' W 119°44'0 0.3
2017-Jul-21 10:00N 33°45' W 119°44'0 0.3
2017-Jul-21 09:29N 33°45' W 119°43'0 0.0
2017-Jul-21 09:00N 33°45' W 119°43'0 0.0
2017-Jul-21 08:30N 33°45' W 119°43'0 0.5
2017-Jul-21 08:00N 33°45' W 119°43'0 0.4
2017-Jul-21 07:29N 33°45' W 119°43'0 0.3
2017-Jul-21 07:00N 33°45' W 119°43'0 0.1
2017-Jul-21 06:30N 33°45' W 119°43'0 0.1
2017-Jul-21 06:00N 33°45' W 119°43'0 0.2
2017-Jul-21 05:30N 33°45' W 119°43'0 0.4
2017-Jul-21 05:00N 33°45' W 119°42'0 0.5
2017-Jul-21 04:30N 33°45' W 119°42'0 0.4
2017-Jul-21 04:00N 33°45' W 119°42'0 0.1
2017-Jul-21 03:30N 33°45' W 119°42'0 0.0
2017-Jul-21 03:00N 33°45' W 119°42'0 0.4
2017-Jul-21 02:30N 33°45' W 119°42'0 0.5
2017-Jul-21 02:00N 33°45' W 119°41'0 0.4
2017-Jul-21 01:30N 33°45' W 119°41'0 0.2
2017-Jul-21 01:00N 33°45' W 119°41'0 0.0
2017-Jul-21 00:30N 33°45' W 119°41'0 0.0
2017-Jul-21 00:00N 33°45' W 119°41'0 0.0
2017-Jul-20 23:30N 33°45' W 119°41'0 0.0
2017-Jul-20 23:00N 33°45' W 119°41'0 0.0
2017-Jul-20 22:30N 33°45' W 119°41'0 0.5
2017-Jul-20 22:00N 33°45' W 119°41'4 8.0
2017-Jul-20 21:30N 33°45' W 119°45'4 7.8
2017-Jul-20 21:00N 33°45' W 119°50'3 6.8
2017-Jul-20 20:30N 33°45' W 119°54'510.1
2017-Jul-20 20:00N 33°50' W 119°55'510.4
2017-Jul-20 19:30N 33°55' W 119°56'611.3
2017-Jul-20 19:00N 34°01' W 119°57'5 9.1
2017-Jul-20 18:30N 34°06' W 119°57'5 9.1
2017-Jul-20 18:00N 34°09' W 119°54'5 9.7
2017-Jul-20 17:30N 34°13' W 119°50'5 9.8
2017-Jul-20 17:00N 34°17' W 119°47'5 9.9
2017-Jul-20 16:30N 34°21' W 119°43'3 6.2
2017-Jul-20 15:58N 34°24' W 119°41'0 0.0
2017-Jul-20 15:30N 34°24' W 119°41'0 0.0
2017-Jul-20 14:59N 34°24' W 119°41'1 1.3
2017-Jul-20 14:00N 34°23' W 119°41'510.0
2017-Jul-20 13:30N 34°18' W 119°38'510.1
2017-Jul-20 13:00N 34°14' W 119°35'510.0
2017-Jul-20 12:30N 34°09' W 119°33'510.1
2017-Jul-20 12:00N 34°04' W 119°31'510.2
2017-Jul-20 11:30N 33°60' W 119°28'510.0
2017-Jul-20 11:01N 33°55' W 119°26'510.2
2017-Jul-20 10:30N 33°50' W 119°24'510.6
2017-Jul-20 10:00N 33°45' W 119°22'510.0
2017-Jul-20 09:30N 33°42' W 119°18'5 9.8
2017-Jul-20 09:00N 33°38' W 119°14'5 9.5
2017-Jul-20 08:30N 33°33' W 119°12'4 7.0
2017-Jul-20 07:58N 33°30' W 119°10'1 1.7
2017-Jul-20 07:25N 33°29' W 119°09'1 1.6
2017-Jul-20 07:01N 33°29' W 119°09'0 0.0
2017-Jul-20 06:30N 33°29' W 119°09'0 0.1
2017-Jul-20 06:00N 33°29' W 119°09'0 0.1
2017-Jul-20 05:30N 33°29' W 119°09'0 0.3
2017-Jul-20 05:00N 33°29' W 119°09'0 0.1
2017-Jul-20 04:30N 33°29' W 119°09'0 0.0
2017-Jul-20 03:58N 33°29' W 119°09'0 0.2
2017-Jul-20 03:30N 33°29' W 119°09'0 0.1
2017-Jul-20 03:00N 33°29' W 119°09'0 0.0
2017-Jul-20 02:30N 33°29' W 119°09'0 0.0
2017-Jul-20 02:00N 33°29' W 119°09'0 0.0
2017-Jul-20 01:30N 33°29' W 119°09'0 0.1
2017-Jul-20 00:59N 33°29' W 119°09'0 0.3
2017-Jul-20 00:30N 33°29' W 119°09'0 0.2
2017-Jul-20 00:00N 33°29' W 119°09'0 0.1
2017-Jul-19 23:30N 33°29' W 119°09'0 0.2
2017-Jul-19 23:00N 33°29' W 119°09'0 0.3
2017-Jul-19 22:30N 33°29' W 119°10'0 0.3
2017-Jul-19 22:00N 33°29' W 119°10'0 0.3
2017-Jul-19 21:30N 33°29' W 119°10'0 0.3
2017-Jul-19 21:00N 33°30' W 119°09'0 0.2
2017-Jul-19 20:30N 33°30' W 119°09'0 0.4
2017-Jul-19 19:55N 33°29' W 119°09'0 0.9
2017-Jul-19 19:30N 33°29' W 119°09'0 0.6
2017-Jul-19 19:00N 33°29' W 119°09'0 0.5
2017-Jul-19 18:29N 33°29' W 119°08'0 0.2
2017-Jul-19 17:59N 33°29' W 119°08'0 0.2
2017-Jul-19 17:30N 33°29' W 119°08'0 0.1
2017-Jul-19 17:00N 33°29' W 119°08'0 0.2
2017-Jul-19 16:30N 33°29' W 119°08'0 0.1
2017-Jul-19 15:59N 33°29' W 119°08'0 0.2
2017-Jul-19 15:30N 33°29' W 119°08'0 0.0
2017-Jul-19 15:00N 33°29' W 119°08'0 0.9
2017-Jul-19 14:30N 33°29' W 119°08'4 7.9
2017-Jul-19 14:00N 33°26' W 119°04'4 8.1
2017-Jul-19 13:30N 33°28' W 118°59'3 5.0
2017-Jul-19 13:00N 33°30' W 119°00'3 6.0
2017-Jul-19 12:27N 33°27' W 119°01'3 6.5
2017-Jul-19 12:00N 33°25' W 119°04'3 6.6
2017-Jul-19 11:30N 33°22' W 119°02'1 1.0
2017-Jul-19 11:01N 33°22' W 119°02'2 3.1
2017-Jul-19 10:30N 33°23' W 119°04'3 5.5
2017-Jul-19 10:00N 33°22' W 119°01'4 8.4
2017-Jul-19 09:30N 33°23' W 119°05'4 7.8
2017-Jul-19 09:00N 33°22' W 119°01'1 2.9
2017-Jul-19 08:30N 33°21' W 118°60'4 8.7
2017-Jul-19 08:00N 33°23' W 119°04'1 2.8
2017-Jul-19 07:30N 33°22' W 119°03'2 3.3
2017-Jul-19 07:00N 33°21' W 119°01'5 9.9
2017-Jul-19 06:31N 33°23' W 119°06'510.1
2017-Jul-19 05:58N 33°29' W 119°05'1 2.5
2017-Jul-19 05:30N 33°30' W 119°04'0 0.0
2017-Jul-19 05:00N 33°30' W 119°04'0 0.0
2017-Jul-19 04:30N 33°30' W 119°04'0 0.0
2017-Jul-19 04:00N 33°30' W 119°04'0 0.0
2017-Jul-19 03:30N 33°30' W 119°04'0 0.0
2017-Jul-19 03:00N 33°30' W 119°04'0 0.0
2017-Jul-19 02:30N 33°30' W 119°04'0 0.5
2017-Jul-19 02:00N 33°29' W 119°04'0 0.2
2017-Jul-19 01:30N 33°29' W 119°05'3 6.9
2017-Jul-19 01:00N 33°26' W 119°03'5 9.4
2017-Jul-19 00:30N 33°22' W 119°01'2 4.4
2017-Jul-19 00:00N 33°22' W 119°03'1 2.6
2017-Jul-18 23:30N 33°22' W 119°05'4 7.7
2017-Jul-18 23:00N 33°21' W 119°00'3 6.7
2017-Jul-18 22:30N 33°22' W 119°04'0 0.7
2017-Jul-18 22:00N 33°22' W 119°04'3 5.4
2017-Jul-18 21:30N 33°21' W 119°01'4 8.3
2017-Jul-18 21:00N 33°22' W 119°06'4 6.8
2017-Jul-18 20:27N 33°21' W 119°01'3 7.2
2017-Jul-18 20:00N 33°24' W 119°02'5 9.3
2017-Jul-18 19:29N 33°28' W 119°04'1 2.5
2017-Jul-18 18:58N 33°30' W 119°04'0 0.0
2017-Jul-18 18:30N 33°30' W 119°04'0 0.1
2017-Jul-18 18:00N 33°30' W 119°04'0 0.0
2017-Jul-18 17:30N 33°30' W 119°04'0 0.0
2017-Jul-18 17:00N 33°30' W 119°04'0 0.0
2017-Jul-18 16:29N 33°30' W 119°04'1 1.5
2017-Jul-18 16:00N 33°30' W 119°05'5 9.4
2017-Jul-18 15:30N 33°33' W 119°10'5 9.9
2017-Jul-18 15:00N 33°36' W 119°14'9 9.4
2017-Jul-18 14:00N 33°41' W 119°23'5 9.2
2017-Jul-18 13:30N 33°44' W 119°28'5 9.1
2017-Jul-18 13:00N 33°46' W 119°33'5 9.3
2017-Jul-18 12:30N 33°49' W 119°37'5 9.4
2017-Jul-18 12:00N 33°52' W 119°42'5 9.8
2017-Jul-18 11:30N 33°54' W 119°47'2 4.5
2017-Jul-18 11:00N 33°56' W 119°49'0 0.3
2017-Jul-18 10:30N 33°56' W 119°49'0 0.0
2017-Jul-18 10:00N 33°56' W 119°49'0 0.0
2017-Jul-18 09:29N 33°56' W 119°49'0 0.0
2017-Jul-18 09:00N 33°56' W 119°49'0 0.0
2017-Jul-18 08:20N 33°56' W 119°49'0 0.0
2017-Jul-18 07:54N 33°56' W 119°49'0 0.0
2017-Jul-18 07:30N 33°56' W 119°49'0 0.0
2017-Jul-18 07:00N 33°56' W 119°49'0 0.1
2017-Jul-18 06:30N 33°56' W 119°49'0 0.0
2017-Jul-18 06:00N 33°56' W 119°49'0 0.1
2017-Jul-18 05:29N 33°56' W 119°49'0 0.0
2017-Jul-18 05:00N 33°56' W 119°49'1 2.0
2017-Jul-18 04:30N 33°56' W 119°47'510.0
2017-Jul-18 04:00N 33°57' W 119°41'510.2
2017-Jul-18 03:29N 33°58' W 119°35'5 9.9
2017-Jul-18 03:00N 33°59' W 119°29'5 9.8
2017-Jul-18 02:30N 33°60' W 119°24'5 9.4
2017-Jul-18 02:00N 34°02' W 119°19'5 9.9
2017-Jul-18 01:30N 34°06' W 119°15'2 3.8
2017-Jul-18 00:58N 34°07' W 119°13'0 0.0
2017-Jul-18 00:30N 34°07' W 119°13'0 0.0
2017-Jul-17 23:56N 34°07' W 119°13'0 0.2
2017-Jul-17 23:29N 34°07' W 119°13'0 0.2
2017-Jul-17 22:59N 34°07' W 119°13'1 1.2
2017-Jul-17 22:30N 34°08' W 119°13'0 0.1
2017-Jul-17 21:59N 34°08' W 119°13'0 0.1
2017-Jul-17 21:30N 34°08' W 119°13'0 0.8
2017-Jul-17 21:00N 34°08' W 119°13'2 3.4
2017-Jul-17 20:30N 34°06' W 119°15'1 1.6
2017-Jul-17 19:59N 34°06' W 119°14'2 5.1
2017-Jul-17 19:30N 34°08' W 119°13'2 3.5
2017-Jul-17 19:00N 34°06' W 119°14'4 7.6
2017-Jul-17 18:29N 34°09' W 119°17'510.2
2017-Jul-17 18:00N 34°12' W 119°22'510.2
2017-Jul-17 17:28N 34°15' W 119°27'510.5
2017-Jul-17 16:57N 34°18' W 119°32'510.2
2017-Jul-17 16:30N 34°21' W 119°37'  

Dump ship's entire track history